Time;durP1;ratioP1;P1;durP2;ratioP2;P2;SDS_P1;SDS_P2;PMS_P1;PMS_P2;Temp;Humidity;BMP_temperature;BMP_pressure;BME280_temperature;BME280_humidity;BME280_pressure;Samples;Min_cycle;Max_cycle;Signal;HPM_P1;HPM_P2
2021/08/10 00:00:08;;;;;;;7.70;6.58;;;;;;;20.27;75.20;99662.75;130428;1090;23120;-56
2021/08/10 00:02:39;;;;;;;8.33;6.55;;;;;;;20.24;75.15;99657.85;130100;1089;113658;-56
2021/08/10 00:05:09;;;;;;;7.50;6.60;;;;;;;20.23;75.30;99656.22;130403;1089;23092;-55
2021/08/10 00:07:38;;;;;;;7.95;6.70;;;;;;;20.20;75.51;99669.90;130409;1089;22508;-56
2021/08/10 00:10:07;;;;;;;10.90;7.30;;;;;;;20.18;75.48;99674.92;130158;1090;113616;-56
2021/08/10 00:12:36;;;;;;;7.65;6.85;;;;;;;20.16;75.55;99666.94;130211;1089;22510;-56
2021/08/10 00:15:06;;;;;;;9.05;6.53;;;;;;;20.16;75.35;99671.66;130312;1090;113754;-56
2021/08/10 00:17:35;;;;;;;8.28;7.20;;;;;;;20.13;75.44;99668.39;130235;1088;23074;-56
2021/08/10 00:20:05;;;;;;;8.78;5.95;;;;;;;20.11;75.71;99672.60;130126;1089;113913;-56
2021/08/10 00:22:34;;;;;;;7.53;6.73;;;;;;;20.09;75.52;99659.08;130179;1090;22616;-56
2021/08/10 00:25:04;;;;;;;7.78;7.00;;;;;;;20.07;75.66;99664.11;130087;1090;22551;-56
2021/08/10 00:27:33;;;;;;;7.50;6.80;;;;;;;20.03;75.85;99667.85;130170;1089;113794;-56
2021/08/10 00:30:02;;;;;;;7.65;6.93;;;;;;;20.00;76.01;99663.77;130220;1088;22564;-56
2021/08/10 00:32:30;;;;;;;8.10;7.30;;;;;;;19.97;76.06;99663.58;129993;1089;114091;-56
2021/08/10 00:34:59;;;;;;;14.53;7.10;;;;;;;19.94;76.14;99661.44;130437;1089;22564;-56
2021/08/10 00:37:29;;;;;;;7.85;7.13;;;;;;;19.90;76.33;99666.80;130104;1090;22520;-56
2021/08/10 00:39:58;;;;;;;7.33;6.48;;;;;;;19.87;76.40;99664.66;130025;1089;113847;-56
2021/08/10 00:42:27;;;;;;;11.43;6.88;;;;;;;19.85;76.36;99666.92;130060;1088;23296;-56
2021/08/10 00:44:59;;;;;;;7.73;6.88;;;;;;;19.84;76.54;99676.35;130031;1089;113974;-56
2021/08/10 00:47:31;;;;;;;7.63;6.93;;;;;;;19.83;76.47;99673.90;130104;1090;23048;-56
2021/08/10 00:50:01;;;;;;;7.70;6.83;;;;;;;19.81;76.36;99674.20;129968;1090;113893;-56
2021/08/10 00:52:32;;;;;;;7.55;6.78;;;;;;;19.80;76.60;99683.63;130183;1090;22551;-56
2021/08/10 00:55:05;;;;;;;7.35;6.65;;;;;;;19.78;76.74;99672.06;130113;1090;22748;-56
2021/08/10 00:57:35;;;;;;;7.45;6.73;;;;;;;19.75;76.71;99679.07;130036;1090;115277;-56
2021/08/10 01:00:05;;;;;;;8.10;7.30;;;;;;;19.73;76.64;99673.03;130092;1090;22604;-56
2021/08/10 01:02:35;;;;;;;8.60;7.70;;;;;;;19.71;76.70;99674.48;130090;1090;113959;-56
2021/08/10 01:05:05;;;;;;;13.85;7.80;;;;;;;19.69;76.89;99669.26;130167;1090;22611;-56
2021/08/10 01:07:48;;;;;;;10.93;8.50;;;;;;;19.68;76.83;99673.15;130140;1089;22616;-56
2021/08/10 01:10:24;;;;;;;13.10;8.63;;;;;;;19.65;76.94;99679.30;129998;1090;115341;-56
2021/08/10 01:13:04;;;;;;;11.90;8.40;;;;;;;19.60;76.87;99676.68;130131;1090;22617;-55
2021/08/10 01:15:51;;;;;;;10.93;8.80;;;;;;;19.59;76.90;99675.05;130004;1090;114194;-55
2021/08/10 01:18:25;;;;;;;11.95;9.00;;;;;;;19.55;77.07;99673.22;130119;1090;22537;-56
2021/08/10 01:21:20;;;;;;;9.73;7.70;;;;;;;19.53;77.29;99669.94;130385;1090;113955;-56
2021/08/10 01:24:22;;;;;;;9.48;7.78;;;;;;;19.52;77.19;99668.31;130130;1090;22538;-56
2021/08/10 01:27:03;;;;;;;10.20;8.45;;;;;;;19.49;77.25;99674.42;129975;1089;114188;-55
2021/08/10 01:29:35;;;;;;;8.40;7.60;;;;;;;19.46;77.18;99670.36;130433;1089;22516;-56
2021/08/10 01:32:05;;;;;;;9.88;8.08;;;;;;;19.45;77.25;99668.73;130035;1090;114138;-56
2021/08/10 01:34:42;;;;;;;11.75;8.93;;;;;;;19.43;77.22;99666.27;130125;1089;22622;-56
2021/08/10 01:37:26;;;;;;;8.98;7.75;;;;;;;19.42;77.38;99666.58;130101;1090;22542;-55
2021/08/10 01:40:05;;;;;;;7.40;6.80;;;;;;;19.39;77.47;99672.73;130055;1090;113752;-57
2021/08/10 01:42:40;;;;;;;9.13;7.20;;;;;;;19.35;77.63;99668.95;130127;1088;22554;-56
2021/08/10 01:45:09;;;;;;;8.28;7.30;;;;;;;19.31;77.67;99657.73;129990;1090;115491;-56
2021/08/10 01:47:40;;;;;;;10.13;7.30;;;;;;;19.28;77.56;99655.58;130160;1090;22570;-56
2021/08/10 01:50:11;;;;;;;8.45;7.50;;;;;;;19.26;77.75;99655.08;130017;1089;114242;-56
2021/08/10 01:52:48;;;;;;;9.98;7.30;;;;;;;19.25;77.87;99650.67;130125;1090;22664;-56
2021/08/10 01:55:19;;;;;;;18.48;7.65;;;;;;;19.23;77.90;99646.59;130111;1090;22534;-56
2021/08/10 01:57:49;;;;;;;10.98;7.68;;;;;;;19.20;77.78;99650.78;130046;1090;114513;-56
2021/08/10 02:00:18;;;;;;;8.05;7.23;;;;;;;19.18;78.02;99657.77;130140;1090;22668;-56
2021/08/10 02:02:49;;;;;;;7.23;6.60;;;;;;;19.14;77.81;99653.99;130054;1089;114175;-57
2021/08/10 02:05:31;;;;;;;7.53;6.83;;;;;;;19.11;78.10;99649.91;130144;1090;22654;-57
2021/08/10 02:08:02;;;;;;;7.68;6.95;;;;;;;19.11;78.13;99651.84;129970;1090;113856;-56
2021/08/10 02:10:34;;;;;;;7.13;6.43;;;;;;;19.09;78.09;99646.63;130202;1090;22518;-56
2021/08/10 02:13:04;;;;;;;8.23;6.80;;;;;;;19.08;78.15;99651.33;130122;1090;22555;-56
2021/08/10 02:15:42;;;;;;;10.18;6.50;;;;;;;19.07;78.06;99651.64;130003;1090;113862;-56
2021/08/10 02:18:11;;;;;;;7.55;6.80;;;;;;;19.05;77.86;99657.47;130102;1090;22566;-55
2021/08/10 02:20:50;;;;;;;9.23;5.78;;;;;;;19.03;78.12;99647.89;130016;1090;116488;-55
2021/08/10 02:23:19;;;;;;;7.93;6.60;;;;;;;18.99;78.09;99646.87;130084;1090;22540;-56
2021/08/10 02:25:49;;;;;;;7.08;6.48;;;;;;;18.94;78.35;99656.08;130083;1090;22650;-55
2021/08/10 02:28:18;;;;;;;7.53;6.40;;;;;;;18.92;78.37;99661.08;130022;1090;113696;-55
2021/08/10 02:30:53;;;;;;;11.05;6.70;;;;;;;18.92;78.54;99654.75;130129;1089;22586;-55
2021/08/10 02:33:30;;;;;;;7.88;6.85;;;;;;;18.92;78.43;99650.04;129976;1088;114080;-56
2021/08/10 02:35:59;;;;;;;6.83;6.00;;;;;;;18.91;77.89;99644.83;130130;1090;22557;-55
2021/08/10 02:38:31;;;;;;;7.33;6.63;;;;;;;18.87;78.22;99647.41;130036;1089;114211;-56
2021/08/10 02:41:00;;;;;;;10.75;6.95;;;;;;;18.85;78.30;99654.36;130103;1090;22583;-56
2021/08/10 02:43:33;;;;;;;8.38;6.78;;;;;;;18.84;78.28;99652.73;130100;1088;22542;-57
2021/08/10 02:46:04;;;;;;;7.43;6.73;;;;;;;18.83;78.64;99653.84;129953;1090;114036;-57
2021/08/10 02:48:34;;;;;;;9.13;7.10;;;;;;;18.80;78.49;99647.00;130111;1089;22708;-56
2021/08/10 02:51:04;;;;;;;8.15;6.85;;;;;;;18.78;78.64;99659.47;130024;1090;113766;-56
2021/08/10 02:53:33;;;;;;;8.23;7.15;;;;;;;18.73;78.80;99654.90;130350;1090;22529;-57
2021/08/10 02:56:09;;;;;;;7.35;6.65;;;;;;;18.68;78.80;99653.05;130002;1089;113874;-57
2021/08/10 02:58:43;;;;;;;9.38;7.78;;;;;;;18.66;79.01;99662.76;130166;1089;22549;-56
2021/08/10 03:01:14;;;;;;;7.95;7.23;;;;;;;18.61;79.03;99655.39;130126;1089;22684;-57
2021/08/10 03:03:44;;;;;;;8.00;7.20;;;;;;;18.60;79.32;99656.55;129973;1090;114052;-56
2021/08/10 03:06:14;;;;;;;7.48;6.78;;;;;;;18.59;79.35;99671.47;130142;1090;22643;-57
2021/08/10 03:08:46;;;;;;;11.35;6.70;;;;;;;18.59;79.35;99663.19;129991;1090;113664;-56
2021/08/10 03:11:38;;;;;;;7.25;6.55;;;;;;;18.61;79.40;99669.19;130132;1090;22518;-56
2021/08/10 03:14:09;;;;;;;8.38;7.00;;;;;;;18.54;79.44;99660.49;129966;1090;113933;-57
2021/08/10 03:16:58;;;;;;;7.45;6.75;;;;;;;18.59;79.44;99663.19;130156;1090;22570;-57
2021/08/10 03:19:28;;;;;;;8.63;7.15;;;;;;;18.62;79.51;99662.55;129997;1093;23220;-57
2021/08/10 03:21:57;;;;;;;6.80;6.23;;;;;;;18.62;79.36;99668.07;129920;1092;114365;-57
2021/08/10 03:24:26;;;;;;;7.95;6.50;;;;;;;18.61;79.33;99663.67;130068;1090;22549;-56
2021/08/10 03:26:56;;;;;;;15.10;7.10;;;;;;;18.63;79.41;99669.70;129953;1090;114096;-56
2021/08/10 03:29:27;;;;;;;8.50;7.70;;;;;;;18.66;79.24;99663.58;130045;1090;23559;-56
2021/08/10 03:31:56;;;;;;;8.73;6.95;;;;;;;18.67;79.51;99667.98;129945;1090;114017;-57
2021/08/10 03:34:25;;;;;;;8.30;6.60;;;;;;;18.69;79.32;99670.43;129793;1090;22569;-56
2021/08/10 03:36:55;;;;;;;7.10;6.50;;;;;;;18.71;79.36;99671.77;130036;1090;23633;-56
2021/08/10 03:39:24;;;;;;;7.68;6.98;;;;;;;18.74;79.21;99672.28;129939;1090;113915;-56
2021/08/10 03:41:55;;;;;;;8.03;6.28;;;;;;;18.77;79.07;99668.88;130023;1090;22557;-56
2021/08/10 03:44:24;;;;;;;8.25;7.15;;;;;;;18.81;79.03;99678.19;129930;1090;114132;-56
2021/08/10 03:46:55;;;;;;;8.43;7.03;;;;;;;18.83;79.18;99662.13;130095;1091;22555;-56
2021/08/10 03:49:24;;;;;;;8.40;7.15;;;;;;;18.85;78.76;99665.41;130036;1090;22620;-56
2021/08/10 03:51:54;;;;;;;11.13;7.38;;;;;;;18.86;78.74;99667.05;130004;1090;113004;-56
2021/08/10 03:54:23;;;;;;;8.70;7.50;;;;;;;18.87;78.80;99671.44;130139;1089;22593;-56
2021/08/10 03:56:54;;;;;;;10.33;7.73;;;;;;;18.89;78.57;99666.44;130041;1090;113753;-56
2021/08/10 03:59:23;;;;;;;12.70;8.05;;;;;;;18.92;78.75;99665.78;130130;1090;22607;-57
2021/08/10 04:01:53;;;;;;;11.80;7.23;;;;;;;18.94;78.36;99667.12;130149;1090;22483;-57
2021/08/10 04:04:23;;;;;;;13.60;8.53;;;;;;;18.90;78.40;99660.57;129974;1090;114747;-57
2021/08/10 04:09:41;;;;;;;8.93;6.85;;;;;;;19.01;77.92;99647.38;125320;1092;22879;-58
2021/08/10 04:12:16;;;;;;;7.75;7.03;;;;;;;19.02;78.17;99649.02;129777;1092;22518;-58
2021/08/10 04:14:48;;;;;;;8.68;6.68;;;;;;;19.05;78.00;99654.71;129674;1092;114076;-56
2021/08/10 04:17:18;;;;;;;8.90;7.48;;;;;;;19.08;78.01;99650.52;129811;1093;22603;-56
2021/08/10 04:19:49;;;;;;;8.88;7.08;;;;;;;19.12;77.62;99659.00;129770;1093;22555;-56
2021/08/10 04:22:20;;;;;;;12.05;7.28;;;;;;;19.16;77.63;99651.73;129626;1092;113274;-56
2021/08/10 04:24:49;;;;;;;8.38;7.13;;;;;;;19.18;77.68;99661.35;129740;1093;22639;-56
2021/08/10 04:27:18;;;;;;;8.80;7.23;;;;;;;19.22;77.53;99661.52;129668;1093;113953;-56
2021/08/10 04:29:51;;;;;;;9.25;6.73;;;;;;;19.26;77.33;99657.02;129766;1093;22580;-56
2021/08/10 04:32:22;;;;;;;12.93;7.98;;;;;;;19.29;77.10;99659.16;129653;1093;116927;-58
2021/08/10 04:34:51;;;;;;;8.33;7.40;;;;;;;19.33;77.20;99660.97;129782;1093;22529;-56
2021/08/10 04:37:21;;;;;;;8.00;7.15;;;;;;;19.35;76.84;99664.23;129727;1093;22576;-55
2021/08/10 04:39:51;;;;;;;9.30;7.10;;;;;;;19.37;76.88;99661.17;129634;1092;113629;-56
2021/08/10 04:42:27;;;;;;;8.80;7.68;;;;;;;19.40;76.73;99661.37;129783;1093;24405;-56
2021/08/10 04:44:56;;;;;;;7.03;5.80;;;;;;;19.45;76.72;99662.38;129715;1092;113601;-56
2021/08/10 04:47:25;;;;;;;8.83;6.55;;;;;;;19.51;76.67;99644.56;129765;1093;22592;-56
2021/08/10 04:49:54;;;;;;;8.20;7.15;;;;;;;19.56;76.52;99652.73;129783;1093;22554;-56
2021/08/10 04:52:23;;;;;;;7.58;6.75;;;;;;;19.65;76.70;99650.84;129655;1093;113627;-56
2021/08/10 04:54:52;;;;;;;6.68;6.00;;;;;;;19.73;76.10;99639.86;129767;1092;22567;-56
2021/08/10 04:57:41;;;;;;;9.08;6.43;;;;;;;19.89;76.05;99645.81;129679;1092;113779;-56
2021/08/10 05:00:11;;;;;;;9.58;6.83;;;;;;;20.09;75.82;99644.44;129684;1093;22549;-55
2021/08/10 05:02:41;;;;;;;7.00;6.30;;;;;;;20.31;74.94;99636.09;129631;1093;114116;-57
2021/08/10 05:05:11;;;;;;;10.08;6.40;;;;;;;20.55;74.08;99641.23;129734;1095;22541;-57
2021/08/10 05:08:00;;;;;;;8.63;5.73;;;;;;;20.82;73.24;99643.75;129657;1096;22585;-57
2021/08/10 05:10:30;;;;;;;11.30;5.78;;;;;;;21.11;72.40;99637.59;129622;1097;113910;-57
2021/08/10 05:13:01;;;;;;;7.08;6.43;;;;;;;21.41;71.81;99637.80;129707;1095;22631;-57
2021/08/10 05:15:47;;;;;;;7.23;5.80;;;;;;;21.79;70.66;99632.34;129331;1096;113434;-57
2021/08/10 05:18:16;;;;;;;7.53;5.60;;;;;;;22.09;69.62;99627.73;129705;1096;22591;-57
2021/08/10 05:20:45;;;;;;;7.53;5.33;;;;;;;22.40;68.52;99624.67;129636;1096;113980;-57
2021/08/10 05:23:14;;;;;;;8.80;5.55;;;;;;;22.65;67.37;99620.94;129732;1095;22583;-57
2021/08/10 05:25:43;;;;;;;5.23;4.58;;;;;;;22.85;66.30;99622.16;129650;1096;22609;-57
2021/08/10 05:28:12;;;;;;;8.50;5.35;;;;;;;23.03;65.88;99629.23;129651;1096;113624;-57
2021/08/10 05:30:42;;;;;;;7.50;5.20;;;;;;;23.21;64.72;99621.58;129418;1095;22597;-57
2021/08/10 05:33:11;;;;;;;7.00;4.88;;;;;;;23.31;64.62;99618.38;129593;1095;113522;-57
2021/08/10 05:35:40;;;;;;;7.20;5.93;;;;;;;23.45;64.36;99621.69;129732;1093;22611;-58
2021/08/10 05:38:09;;;;;;;6.70;5.58;;;;;;;23.65;63.72;99627.60;129662;1092;113694;-58
2021/08/10 05:40:41;;;;;;;6.95;4.80;;;;;;;23.81;63.34;99622.98;129765;1092;22556;-58
2021/08/10 05:43:10;;;;;;;5.53;4.55;;;;;;;23.95;62.31;99624.30;129799;1092;22554;-58
2021/08/10 05:45:40;;;;;;;6.13;5.00;;;;;;;24.04;61.72;99621.44;129679;1092;113463;-58
2021/08/10 05:48:15;;;;;;;4.68;4.28;;;;;;;24.05;61.15;99619.47;129753;1092;23040;-59
2021/08/10 05:50:57;;;;;;;5.75;4.68;;;;;;;24.00;61.89;99633.59;129578;1093;113774;-58
2021/08/10 05:53:27;;;;;;;8.23;4.90;;;;;;;24.01;61.38;99624.09;129790;1092;23335;-59
2021/08/10 05:55:55;;;;;;;6.30;4.50;;;;;;;23.94;61.65;99622.70;129781;1093;22596;-59
2021/08/10 05:58:24;;;;;;;7.05;5.13;;;;;;;23.89;61.92;99620.13;129627;1093;113761;-59
2021/08/10 06:00:54;;;;;;;8.33;5.25;;;;;;;23.82;62.32;99630.18;129760;1093;22548;-58
2021/08/10 06:03:24;;;;;;;7.58;5.00;;;;;;;23.70;62.32;99635.71;129655;1093;113688;-59
2021/08/10 06:05:54;;;;;;;6.20;5.00;;;;;;;23.58;62.96;99637.30;129730;1093;22558;-59
2021/08/10 06:08:27;;;;;;;9.50;5.18;;;;;;;23.49;63.35;99635.73;129679;1092;113806;-58
2021/08/10 06:11:04;;;;;;;6.40;5.08;;;;;;;23.44;63.39;99631.19;129742;1093;22558;-58
2021/08/10 06:13:36;;;;;;;7.00;5.78;;;;;;;23.41;63.74;99625.48;129747;1093;22630;-57
2021/08/10 06:16:05;;;;;;;5.43;4.93;;;;;;;23.38;63.64;99635.31;129626;1093;113917;-58
2021/08/10 06:18:36;;;;;;;5.83;4.60;;;;;;;23.30;63.96;99624.28;129740;1093;23130;-58
2021/08/10 06:21:06;;;;;;;8.40;4.98;;;;;;;23.24;63.91;99626.44;129649;1093;113500;-58
2021/08/10 06:23:35;;;;;;;5.45;4.95;;;;;;;23.19;63.98;99623.88;129750;1092;23151;-57
2021/08/10 06:26:05;;;;;;;5.10;4.60;;;;;;;23.17;64.59;99623.41;129800;1093;23671;-58
2021/08/10 06:28:34;;;;;;;6.33;5.00;;;;;;;23.19;64.65;99618.33;129640;1093;113851;-58
2021/08/10 06:31:04;;;;;;;10.28;4.73;;;;;;;23.21;64.07;99616.02;129754;1093;22598;-60
2021/08/10 06:33:33;;;;;;;6.05;4.70;;;;;;;23.14;64.67;99607.40;129652;1092;113817;-60
2021/08/10 06:36:02;;;;;;;6.45;4.08;;;;;;;23.21;64.55;99624.36;129766;1093;22543;-59
2021/08/10 06:38:33;;;;;;;6.03;4.18;;;;;;;23.24;64.25;99623.66;129644;1093;114153;-59
2021/08/10 06:41:02;;;;;;;8.88;4.58;;;;;;;23.26;63.74;99626.91;129782;1092;22589;-59
2021/08/10 06:43:32;;;;;;;4.88;3.90;;;;;;;23.29;64.25;99617.90;129816;1093;23307;-59
2021/08/10 06:46:26;;;;;;;4.53;4.13;;;;;;;23.37;63.64;99625.38;129645;1093;114842;-58
2021/08/10 06:49:00;;;;;;;9.08;5.18;;;;;;;23.42;64.08;99633.48;129771;1093;22599;-59
2021/08/10 06:51:31;;;;;;;6.78;4.83;;;;;;;23.44;63.45;99625.63;129675;1093;114368;-59
2021/08/10 06:54:01;;;;;;;4.68;4.18;;;;;;;23.48;63.64;99623.80;129780;1093;22514;-59
2021/08/10 06:56:31;;;;;;;6.80;4.38;;;;;;;23.52;63.76;99612.80;129644;1093;113579;-58
2021/08/10 06:59:00;;;;;;;4.43;4.03;;;;;;;23.61;62.96;99616.34;129779;1093;23642;-59
2021/08/10 07:01:32;;;;;;;9.60;4.65;;;;;;;23.66;62.60;99623.66;129776;1093;22618;-59
2021/08/10 07:04:03;;;;;;;6.55;4.15;;;;;;;23.67;62.97;99620.52;129629;1093;114900;-59
2021/08/10 07:06:32;;;;;;;6.63;4.20;;;;;;;23.71;62.29;99615.08;129768;1093;22550;-59
2021/08/10 07:09:04;;;;;;;7.50;4.95;;;;;;;23.77;62.89;99608.16;129666;1093;115601;-59
2021/08/10 07:11:41;;;;;;;7.23;4.70;;;;;;;23.84;62.42;99608.39;129754;1093;22585;-59
2021/08/10 07:14:13;;;;;;;9.60;4.73;;;;;;;23.88;62.12;99603.77;129756;1093;23177;-59
2021/08/10 07:16:44;;;;;;;4.48;4.00;;;;;;;23.91;62.16;99597.52;129669;1093;113600;-59
2021/08/10 07:19:13;;;;;;;6.00;4.13;;;;;;;23.95;61.73;99609.57;129745;1093;22623;-59
2021/08/10 07:21:43;;;;;;;4.65;3.90;;;;;;;23.97;61.88;99604.48;129672;1092;113595;-59
2021/08/10 07:24:20;;;;;;;;;;;;;;;23.99;61.53;99616.08;129797;1093;22540;-59
2021/08/10 07:26:48;;;;;;;7.13;4.00;;;;;;;23.99;61.01;99604.95;129705;1092;100158;-58
2021/08/10 07:29:24;;;;;;;6.53;4.20;;;;;;;24.04;61.41;99615.06;129763;1093;22629;-59
2021/08/10 07:31:55;;;;;;;5.25;4.05;;;;;;;24.07;61.31;99617.97;129805;1093;22546;-59
2021/08/10 07:34:25;;;;;;;4.60;4.20;;;;;;;24.12;61.11;99614.13;129652;1093;114257;-58
2021/08/10 07:37:14;;;;;;;4.43;3.90;;;;;;;24.15;61.08;99614.26;129753;1093;22654;-58
2021/08/10 07:39:44;;;;;;;4.55;4.15;;;;;;;24.21;61.06;99612.89;129698;1093;113289;-59
2021/08/10 07:42:17;;;;;;;4.65;4.05;;;;;;;24.26;61.04;99609.07;129744;1093;23441;-59
2021/08/10 07:44:47;;;;;;;10.25;4.98;;;;;;;24.29;60.81;99611.98;129668;1093;114251;-59
2021/08/10 07:47:16;;;;;;;4.65;4.20;;;;;;;24.32;60.83;99618.84;129792;1092;23152;-58
2021/08/10 07:49:46;;;;;;;8.28;4.20;;;;;;;24.35;60.85;99620.12;129744;1093;22553;-58
2021/08/10 07:52:15;;;;;;;6.30;4.03;;;;;;;24.39;60.26;99619.06;129691;1093;114065;-58
2021/08/10 07:54:46;;;;;;;8.08;4.18;;;;;;;24.43;60.17;99619.19;129781;1092;23455;-58
2021/08/10 07:57:15;;;;;;;5.03;4.40;;;;;;;24.45;60.02;99623.25;129653;1092;114518;-58
2021/08/10 07:59:44;;;;;;;4.43;4.03;;;;;;;24.49;60.33;99613.05;129792;1093;23540;-58
2021/08/10 08:02:13;;;;;;;5.50;4.30;;;;;;;24.54;60.15;99614.77;129783;1092;22541;-58
2021/08/10 08:04:42;;;;;;;4.48;4.03;;;;;;;24.60;59.98;99618.95;129642;1093;113357;-58
2021/08/10 08:07:14;;;;;;;5.78;4.13;;;;;;;24.66;59.76;99617.57;129776;1093;22587;-58
2021/08/10 08:09:47;;;;;;;5.23;4.58;;;;;;;24.70;59.05;99612.91;129677;1093;113911;-58
2021/08/10 08:12:36;;;;;;;5.58;4.68;;;;;;;24.74;59.70;99615.81;129798;1093;22546;-58
2021/08/10 08:15:06;;;;;;;8.73;4.30;;;;;;;24.80;59.24;99606.88;129641;1092;114006;-58
2021/08/10 08:17:36;;;;;;;5.30;4.33;;;;;;;24.82;58.73;99610.09;129764;1093;22574;-60
2021/08/10 08:20:17;;;;;;;5.10;4.63;;;;;;;24.83;58.62;99611.72;129767;1093;23686;-58
2021/08/10 08:22:46;;;;;;;4.75;4.25;;;;;;;24.86;58.83;99604.64;129667;1093;113661;-59
2021/08/10 08:25:16;;;;;;;4.33;3.93;;;;;;;24.90;59.10;99608.35;129804;1093;22603;-59
2021/08/10 08:27:45;;;;;;;6.63;4.00;;;;;;;24.94;57.91;99607.34;129698;1093;113835;-59
2021/08/10 08:30:14;;;;;;;4.78;4.33;;;;;;;24.94;57.96;99612.92;129734;1093;22631;-59
2021/08/10 08:32:50;;;;;;;7.00;4.20;;;;;;;24.95;57.84;99603.39;129649;1093;113437;-59
2021/08/10 08:35:20;;;;;;;4.88;3.80;;;;;;;24.94;57.52;99598.98;129748;1093;22541;-59
2021/08/10 08:37:49;;;;;;;5.38;4.30;;;;;;;24.95;58.03;99599.79;129733;1093;22560;-58
2021/08/10 08:40:18;;;;;;;4.18;3.80;;;;;;;24.95;58.18;99597.81;127361;1093;113923;-58
2021/08/10 08:42:48;;;;;;;6.50;4.33;;;;;;;24.98;58.82;99596.27;125113;1093;22795;-58
2021/08/10 08:45:17;;;;;;;5.78;4.50;;;;;;;25.05;58.12;99592.91;125051;1093;114935;-59
2021/08/10 08:47:51;;;;;;;4.63;4.23;;;;;;;25.11;58.61;99597.05;125130;1093;22813;-59
2021/08/10 08:50:21;;;;;;;6.90;4.33;;;;;;;25.18;58.60;99584.15;129814;1093;23309;-59
2021/08/10 08:52:52;;;;;;;4.63;4.20;;;;;;;25.24;58.37;99581.93;129678;1092;113886;-59
2021/08/10 08:55:21;;;;;;;5.83;4.23;;;;;;;25.29;57.54;99582.47;129778;1092;22520;-59
2021/08/10 08:57:50;;;;;;;6.00;4.45;;;;;;;25.34;57.25;99587.00;129699;1092;115106;-58
2021/08/10 09:00:21;;;;;;;5.63;4.10;;;;;;;25.36;57.60;99584.67;129724;1093;22590;-58
2021/08/10 09:02:50;;;;;;;5.15;4.33;;;;;;;25.40;58.23;99579.17;129652;1092;114391;-58
2021/08/10 09:05:25;;;;;;;4.23;3.75;;;;;;;25.45;57.55;99576.95;129825;1093;23165;-58
2021/08/10 09:07:57;;;;;;;5.35;4.08;;;;;;;25.52;57.25;99587.51;129779;1093;22604;-58
2021/08/10 09:10:28;;;;;;;7.38;4.55;;;;;;;25.57;57.32;99581.65;129661;1093;113830;-58
2021/08/10 09:12:59;;;;;;;7.75;4.35;;;;;;;25.61;56.96;99585.36;129767;1092;22553;-58
2021/08/10 09:15:33;;;;;;;10.73;5.10;;;;;;;25.64;56.90;99581.89;129671;1093;114194;-58
2021/08/10 09:18:19;;;;;;;5.70;4.65;;;;;;;25.68;57.03;99580.02;129780;1093;22559;-59
2021/08/10 09:21:12;;;;;;;6.00;4.68;;;;;;;25.71;56.98;99577.30;129662;1092;114355;-59
2021/08/10 09:23:51;;;;;;;6.23;4.45;;;;;;;25.76;57.26;99586.59;129791;1093;23374;-58
2021/08/10 09:26:23;;;;;;;5.48;4.98;;;;;;;25.79;56.65;99583.91;129739;1093;22577;-58
2021/08/10 09:28:57;;;;;;;6.58;3.93;;;;;;;25.85;56.40;99576.05;129653;1093;114113;-59
2021/08/10 09:31:44;;;;;;;9.10;5.15;;;;;;;25.90;56.64;99568.23;129803;1092;22567;-58
2021/08/10 09:34:22;;;;;;;6.43;4.58;;;;;;;26.00;56.33;99578.05;129663;1093;113644;-58
2021/08/10 09:36:52;;;;;;;5.83;4.35;;;;;;;26.04;55.61;99584.55;129772;1093;22545;-58
2021/08/10 09:39:34;;;;;;;4.65;4.23;;;;;;;26.05;55.33;99575.00;129206;1093;113675;-58
2021/08/10 09:42:08;;;;;;;5.10;4.60;;;;;;;26.06;54.92;99568.25;125107;1093;27189;-58
2021/08/10 09:44:57;;;;;;;6.05;4.55;;;;;;;26.08;55.15;99579.88;129620;1093;115564;-59
2021/08/10 09:47:36;;;;;;;7.13;4.68;;;;;;;26.12;54.93;99571.56;129794;1092;22548;-58
2021/08/10 09:50:16;;;;;;;11.25;5.28;;;;;;;26.10;54.10;99569.16;129749;1093;22915;-59
2021/08/10 09:52:46;;;;;;;6.95;4.35;;;;;;;26.10;54.25;99555.19;129622;1093;113908;-58
2021/08/10 09:55:18;;;;;;;5.90;4.30;;;;;;;26.13;54.41;99564.81;129693;1093;22567;-58
2021/08/10 09:58:01;;;;;;;8.15;5.10;;;;;;;26.19;55.01;99566.17;129687;1093;114032;-58
2021/08/10 10:00:40;;;;;;;5.33;4.38;;;;;;;26.27;53.61;99570.75;129750;1093;22522;-58
2021/08/10 10:03:18;;;;;;;5.18;4.45;;;;;;;26.28;53.89;99553.66;129652;1093;114113;-59
2021/08/10 10:05:48;;;;;;;4.60;4.05;;;;;;;26.29;53.50;99551.67;129743;1093;22590;-58
2021/08/10 10:08:18;;;;;;;9.00;4.98;;;;;;;26.30;53.59;99542.13;129797;1092;22569;-58
2021/08/10 10:11:02;;;;;;;7.43;4.40;;;;;;;26.31;53.49;99550.15;129672;1092;113594;-59
2021/08/10 10:13:55;;;;;;;8.05;4.28;;;;;;;26.35;53.50;99539.88;129768;1092;22611;-59
2021/08/10 10:16:24;;;;;;;5.98;4.25;;;;;;;26.40;53.46;99542.38;129652;1093;113951;-58
2021/08/10 10:18:54;;;;;;;6.40;4.83;;;;;;;26.46;53.85;99544.90;129755;1093;22582;-59
2021/08/10 10:21:27;;;;;;;5.75;4.30;;;;;;;26.50;51.77;99534.63;129685;1092;114070;-59
2021/08/10 10:23:57;;;;;;;5.73;4.45;;;;;;;26.49;52.47;99533.81;129846;1093;22545;-59
2021/08/10 10:26:26;;;;;;;4.65;4.25;;;;;;;26.51;51.95;99530.66;129747;1093;23692;-58
2021/08/10 10:28:55;;;;;;;4.65;4.25;;;;;;;26.55;52.36;99529.55;129679;1092;113812;-59
2021/08/10 10:31:25;;;;;;;6.03;4.68;;;;;;;26.59;52.06;99519.27;129804;1093;22554;-59
2021/08/10 10:33:55;;;;;;;6.65;5.03;;;;;;;26.62;52.19;99523.32;129660;1092;114609;-59
2021/08/10 10:36:24;;;;;;;5.53;4.68;;;;;;;26.60;52.17;99520.08;129746;1093;23361;-59
2021/08/10 10:38:54;;;;;;;6.65;4.73;;;;;;;26.54;51.94;99519.56;129737;1092;113959;-59
2021/08/10 10:41:24;;;;;;;5.13;4.35;;;;;;;26.52;52.32;99524.70;125411;1092;22783;-58
2021/08/10 10:43:54;;;;;;;4.90;4.37;;;;;;;26.50;52.50;99517.86;125232;1093;22808;-58
2021/08/10 10:46:32;;;;;;;6.98;4.90;;;;;;;26.53;52.69;99520.73;129631;1093;113794;-59
2021/08/10 10:49:04;;;;;;;5.85;4.40;;;;;;;26.56;51.80;99528.38;129805;1093;22562;-59
2021/08/10 10:51:40;;;;;;;5.55;4.63;;;;;;;26.57;51.63;99516.02;129689;1092;113799;-59
2021/08/10 10:54:27;;;;;;;6.63;4.28;;;;;;;26.58;51.60;99516.83;129812;1093;23603;-60
2021/08/10 10:56:59;;;;;;;6.10;4.18;;;;;;;26.61;51.98;99513.31;129701;1093;113883;-59
2021/08/10 10:59:31;;;;;;;4.83;4.18;;;;;;;26.65;51.87;99515.02;129828;1093;22537;-59
2021/08/10 11:02:21;;;;;;;8.13;4.73;;;;;;;26.71;52.33;99513.54;129779;1093;22546;-58
2021/08/10 11:05:08;;;;;;;8.63;4.95;;;;;;;26.79;52.42;99513.71;129738;1093;114047;-58
2021/08/10 11:07:45;;;;;;;5.10;4.53;;;;;;;26.83;51.29;99515.42;129814;1092;22596;-58
2021/08/10 11:10:22;;;;;;;6.65;4.88;;;;;;;26.79;50.93;99511.73;129707;1093;113629;-58
2021/08/10 11:12:51;;;;;;;4.80;4.40;;;;;;;26.74;51.30;99509.20;129768;1093;22593;-58
2021/08/10 11:15:22;;;;;;;8.48;4.55;;;;;;;26.72;51.04;99508.77;129710;1093;113943;-58
2021/08/10 11:18:09;;;;;;;4.70;4.25;;;;;;;26.78;51.27;99512.09;129783;1093;22559;-59
2021/08/10 11:20:49;;;;;;;9.10;4.53;;;;;;;26.84;50.90;99503.03;129746;1093;23581;-59
2021/08/10 11:25:59;;;;;;;8.63;4.73;;;;;;;26.93;51.23;99498.08;129806;1093;22534;-58
2021/08/10 11:28:32;;;;;;;5.35;4.83;;;;;;;27.01;50.55;99494.23;129699;1093;114113;-59
2021/08/10 11:31:11;;;;;;;9.73;5.43;;;;;;;27.06;50.22;99496.75;129805;1093;22587;-58
2021/08/10 11:33:41;;;;;;;480.80;312.40;;;;;;;27.13;50.18;99492.45;129679;1093;113976;-58
2021/08/10 11:36:10;;;;;;;677.48;514.60;;;;;;;27.17;49.85;99493.34;129804;1092;23725;-58
2021/08/10 11:38:51;;;;;;;436.63;287.35;;;;;;;27.16;49.52;99486.94;129815;1093;22631;-59
2021/08/10 11:41:23;;;;;;;136.13;90.00;;;;;;;27.13;49.51;99489.66;129625;1093;114511;-58
2021/08/10 11:43:55;;;;;;;128.73;90.22;;;;;;;27.05;50.35;99483.94;129772;1093;22686;-58
2021/08/10 11:46:25;;;;;;;52.50;39.60;;;;;;;27.02;49.39;99479.08;129652;1093;114656;-58
2021/08/10 11:48:58;;;;;;;49.18;34.83;;;;;;;27.04;49.51;99476.73;129807;1093;23635;-58